Time;durP1;ratioP1;P1;durP2;ratioP2;P2;SDS_P1;SDS_P2;PMS_P1;PMS_P2;Temp;Humidity;BMP_temperature;BMP_pressure;BME280_temperature;BME280_humidity;BME280_pressure;Samples;Min_cycle;Max_cycle;Signal;HPM_P1;HPM_P2
2020/12/05 00:01:39;;;;;;;14.77;7.57;;;1.10;89.40;;;;;;4896351;29;20131;-85
2020/12/05 00:04:09;;;;;;;19.15;8.57;;;1.20;89.30;;;;;;4879399;29;20060;-84
2020/12/05 00:06:36;;;;;;;18.23;8.68;;;1.20;88.90;;;;;;4882567;29;20052;-84
2020/12/05 00:09:06;;;;;;;13.48;7.50;;;1.20;88.90;;;;;;4881245;29;20048;-83
2020/12/05 00:11:32;;;;;;;17.17;7.32;;;1.10;88.90;;;;;;4897308;29;20154;-83
2020/12/05 00:14:00;;;;;;;17.80;7.68;;;1.00;89.40;;;;;;4926161;29;20049;-83
2020/12/05 00:16:33;;;;;;;20.23;7.93;;;1.10;89.40;;;;;;4893249;29;20126;-84
2020/12/05 00:19:00;;;;;;;11.98;6.45;;;1.10;89.40;;;;;;4893566;29;20094;-81
2020/12/05 00:21:29;;;;;;;15.55;6.50;;;1.00;89.40;;;;;;4891312;29;20048;-85
2020/12/05 00:23:56;;;;;;;14.10;7.60;;;1.20;89.60;;;;;;4923158;29;20277;-85
2020/12/05 00:26:24;;;;;;;11.90;6.15;;;1.20;89.20;;;;;;4874899;29;20244;-87
2020/12/05 00:28:52;;;;;;;13.40;7.32;;;1.20;89.30;;;;;;4894384;29;20061;-83
2020/12/05 00:31:20;;;;;;;12.85;6.28;;;1.20;89.30;;;;;;4894719;29;20057;-84
2020/12/05 00:33:58;;;;;;;18.23;5.95;;;1.20;89.40;;;;;;4897423;29;20085;-84
2020/12/05 00:36:31;;;;;;;23.98;8.02;;;1.40;88.90;;;;;;4907391;29;20068;-84
2020/12/05 00:38:58;;;;;;;17.40;6.72;;;1.40;88.70;;;;;;4878273;29;20057;-83
2020/12/05 00:41:29;;;;;;;14.00;6.75;;;1.50;88.20;;;;;;4897329;29;20089;-87
2020/12/05 00:43:57;;;;;;;15.23;6.07;;;1.50;88.10;;;;;;4891508;29;20067;-86
2020/12/05 00:46:24;;;;;;;19.35;6.28;;;1.50;88.10;;;;;;4877748;29;20052;-84
2020/12/05 00:48:53;;;;;;;15.15;6.40;;;1.60;87.60;;;;;;4910019;29;20068;-83
2020/12/05 00:54:54;;;;;;;12.57;5.55;;;1.50;87.70;;;;;;4888939;29;20049;-85
2020/12/05 00:57:23;;;;;;;10.20;6.53;;;1.40;88.20;;;;;;4861068;29;20128;-84
2020/12/05 01:00:08;;;;;;;10.87;4.22;;;1.40;88.50;;;;;;511971;29;10022763;-87
2020/12/05 01:02:37;;;;;;;21.08;7.90;;;1.30;88.50;;;;;;4895513;29;20514;-82
2020/12/05 01:05:07;;;;;;;12.40;6.55;;;1.30;88.40;;;;;;4897125;29;20070;-85
2020/12/05 01:07:35;;;;;;;17.05;7.03;;;1.40;88.50;;;;;;4899726;29;20052;-85
2020/12/05 01:10:06;;;;;;;16.88;6.93;;;1.40;87.90;;;;;;4894574;29;20071;-83
2020/12/05 01:12:35;;;;;;;13.30;6.43;;;1.50;87.90;;;;;;4896686;29;20155;-83
2020/12/05 01:15:05;;;;;;;15.82;7.45;;;1.70;87.30;;;;;;4898322;29;20047;-82
2020/12/05 01:17:35;;;;;;;16.42;7.25;;;1.60;87.00;;;;;;4911345;29;20056;-85
2020/12/05 01:20:06;;;;;;;11.63;6.55;;;1.50;87.80;;;;;;4899991;29;20284;-84
2020/12/05 01:22:37;;;;;;;18.40;6.72;;;1.50;87.70;;;;;;4896787;29;20057;-86
2020/12/05 01:25:09;;;;;;;17.20;7.65;;;1.60;87.80;;;;;;4900740;29;20353;-86
2020/12/05 01:27:36;;;;;;;16.20;7.07;;;1.50;87.80;;;;;;4899114;29;20052;-84
2020/12/05 01:30:05;;;;;;;13.23;5.18;;;1.70;87.70;;;;;;4888491;29;20055;-85
2020/12/05 01:32:33;;;;;;;15.50;7.00;;;1.80;86.90;;;;;;4917737;29;20073;-83
2020/12/05 01:35:03;;;;;;;16.15;6.35;;;1.70;87.00;;;;;;4904209;29;20321;-85
2020/12/05 01:37:34;;;;;;;15.57;6.50;;;1.70;87.20;;;;;;4900947;29;20068;-85
2020/12/05 01:40:04;;;;;;;12.98;6.28;;;1.70;86.70;;;;;;4897319;29;20105;-84
2020/12/05 01:42:33;;;;;;;11.93;6.45;;;1.70;86.70;;;;;;4917003;29;20068;-86
2020/12/05 01:45:02;;;;;;;13.18;5.30;;;1.90;86.50;;;;;;4930989;29;20048;-84
2020/12/05 01:47:34;;;;;;;12.63;6.35;;;2.00;86.30;;;;;;4895180;29;20080;-86
2020/12/05 01:50:04;;;;;;;10.60;4.53;;;1.80;86.20;;;;;;4911767;29;20127;-83
2020/12/05 01:52:39;;;;;;;11.30;5.38;;;1.70;86.00;;;;;;4877972;29;20085;-84
2020/12/05 01:55:11;;;;;;;13.85;6.15;;;1.70;86.80;;;;;;4890750;29;20105;-83
2020/12/05 01:57:40;;;;;;;;;;;1.60;87.00;;;;;;4912054;29;20068;-83
2020/12/05 02:00:10;;;;;;;12.48;6.03;;;1.60;87.50;;;;;;4894288;29;19927;-86
2020/12/05 02:02:44;;;;;;;14.80;6.07;;;1.50;87.60;;;;;;4890545;29;20071;-84
2020/12/05 02:05:22;;;;;;;19.77;7.53;;;1.50;88.20;;;;;;4892037;29;20263;-90
2020/12/05 02:07:58;;;;;;;11.60;6.57;;;1.40;88.00;;;;;;4892422;29;20075;-86
2020/12/05 02:10:28;;;;;;;16.17;7.97;;;1.40;88.40;;;;;;4883871;29;20061;-88
2020/12/05 02:13:01;;;;;;;16.00;6.28;;;1.50;88.50;;;;;;4904612;29;20073;-85
2020/12/05 02:15:37;;;;;;;14.68;5.88;;;1.50;88.40;;;;;;4889440;29;20060;-86
2020/12/05 02:18:07;;;;;;;14.93;6.70;;;1.40;88.80;;;;;;4903151;29;20060;-87
2020/12/05 02:20:37;;;;;;;14.13;5.78;;;1.40;88.90;;;;;;4888436;29;20292;-87
2020/12/05 02:23:17;;;;;;;17.42;6.68;;;1.40;88.60;;;;;;4914602;29;20091;-87
2020/12/05 02:25:50;;;;;;;14.65;6.10;;;1.50;88.50;;;;;;4896871;29;20501;-83
2020/12/05 02:28:20;;;;;;;18.48;6.50;;;1.60;88.20;;;;;;4899805;29;20067;-86
2020/12/05 02:30:50;;;;;;;12.80;6.20;;;1.70;87.70;;;;;;4907673;29;20064;-85
2020/12/05 02:33:18;;;;;;;12.52;4.97;;;1.70;87.50;;;;;;4897774;29;20087;-85
2020/12/05 02:35:46;;;;;;;14.82;7.05;;;1.70;87.30;;;;;;4893930;29;20063;-83
2020/12/05 02:38:21;;;;;;;12.65;5.82;;;1.60;88.00;;;;;;4895444;29;20051;-86
2020/12/05 02:40:50;;;;;;;12.60;5.47;;;1.50;87.70;;;;;;4911247;29;20056;-86
2020/12/05 02:43:18;;;;;;;13.25;5.88;;;1.60;87.40;;;;;;4926461;29;20296;-84
2020/12/05 02:45:46;;;;;;;14.00;6.00;;;1.40;87.90;;;;;;4895079;29;20056;-87
2020/12/05 02:48:14;;;;;;;12.48;5.68;;;1.40;88.60;;;;;;4905152;29;20067;-83
2020/12/05 02:50:42;;;;;;;19.58;7.43;;;1.50;88.50;;;;;;4908881;29;20053;-86
2020/12/05 02:53:09;;;;;;;12.35;5.93;;;1.60;88.50;;;;;;4890322;29;20052;-85
2020/12/05 02:55:39;;;;;;;13.15;6.18;;;1.70;88.00;;;;;;4873299;29;20100;-87
2020/12/05 02:58:10;;;;;;;17.75;6.63;;;1.70;88.20;;;;;;4874427;29;20084;-85
2020/12/05 03:00:43;;;;;;;12.00;6.45;;;1.70;88.20;;;;;;4895534;29;20418;-85
2020/12/05 03:03:11;;;;;;;13.00;5.97;;;1.80;88.00;;;;;;4917258;29;20378;-85
2020/12/05 03:05:39;;;;;;;11.48;4.45;;;1.80;87.80;;;;;;4889665;29;20719;-84
2020/12/05 03:08:08;;;;;;;12.65;5.20;;;1.70;87.60;;;;;;4873035;29;20048;-85
2020/12/05 03:10:37;;;;;;;12.35;6.38;;;1.80;87.80;;;;;;4887977;29;20052;-86
2020/12/05 03:13:05;;;;;;;16.92;5.32;;;1.70;87.60;;;;;;4887990;29;22192;-85
2020/12/05 03:15:34;;;;;;;16.02;6.30;;;1.70;87.50;;;;;;4903019;29;20053;-86
2020/12/05 03:18:03;;;;;;;13.93;6.10;;;1.70;87.50;;;;;;4913252;29;20135;-84
2020/12/05 03:20:32;;;;;;;16.97;6.37;;;1.70;87.80;;;;;;4887633;29;20182;-87
2020/12/05 03:23:01;;;;;;;12.77;6.35;;;1.70;87.90;;;;;;4887317;29;20241;-85
2020/12/05 03:25:29;;;;;;;14.10;5.40;;;1.70;88.00;;;;;;4888640;29;20127;-88
2020/12/05 03:27:58;;;;;;;11.63;5.38;;;1.90;87.00;;;;;;4890269;29;20112;-84
2020/12/05 03:30:28;;;;;;;12.77;5.88;;;1.70;87.30;;;;;;4890566;29;20057;-88
2020/12/05 03:32:56;;;;;;;11.35;6.25;;;1.50;88.30;;;;;;4896110;29;20087;-85
2020/12/05 03:35:26;;;;;;;12.60;5.43;;;1.40;88.90;;;;;;4907395;29;20064;-85
2020/12/05 03:37:55;;;;;;;11.00;5.80;;;1.40;89.40;;;;;;4904861;29;20049;-87
2020/12/05 03:40:24;;;;;;;14.27;5.40;;;1.30;89.80;;;;;;4924041;29;20363;-84
2020/12/05 03:42:52;;;;;;;14.63;6.03;;;1.20;90.00;;;;;;4899807;29;20056;-84
2020/12/05 03:45:23;;;;;;;15.85;6.75;;;1.20;90.30;;;;;;4908562;29;20358;-84
2020/12/05 03:47:52;;;;;;;16.50;7.20;;;1.20;90.50;;;;;;4904672;29;20081;-84
2020/12/05 03:50:20;;;;;;;11.40;6.68;;;1.30;90.90;;;;;;4905421;29;20061;-86
2020/12/05 03:52:50;;;;;;;13.15;5.72;;;1.30;90.80;;;;;;4920650;29;20057;-85
2020/12/05 03:55:17;;;;;;;10.93;5.47;;;1.30;90.80;;;;;;4905429;29;20052;-87
2020/12/05 03:57:47;;;;;;;11.00;5.80;;;1.40;91.00;;;;;;4903874;29;20076;-88
2020/12/05 04:00:15;;;;;;;15.73;6.50;;;1.30;91.00;;;;;;4903230;29;20070;-86
2020/12/05 04:02:44;;;;;;;15.50;6.72;;;1.40;91.40;;;;;;4906106;29;20057;-86
2020/12/05 04:05:11;;;;;;;12.07;5.72;;;1.50;91.50;;;;;;4919802;29;20052;-85
2020/12/05 04:07:40;;;;;;;17.95;6.70;;;1.50;91.50;;;;;;4905430;29;20245;-86
2020/12/05 04:10:08;;;;;;;13.23;5.95;;;1.60;91.30;;;;;;4907454;29;20060;-84
2020/12/05 04:12:36;;;;;;;11.52;5.43;;;1.50;91.30;;;;;;4900364;29;20144;-82
2020/12/05 04:15:06;;;;;;;13.88;6.57;;;1.40;91.80;;;;;;4897585;29;20056;-84
2020/12/05 04:17:34;;;;;;;16.13;7.30;;;1.40;92.10;;;;;;4892244;29;20048;-87
2020/12/05 04:20:03;;;;;;;15.43;7.32;;;1.40;92.20;;;;;;4891792;29;20066;-85
2020/12/05 04:22:32;;;;;;;15.68;6.85;;;1.40;92.50;;;;;;4903565;29;20184;-87
2020/12/05 04:25:00;;;;;;;11.25;5.80;;;1.50;92.20;;;;;;4936081;29;20079;-86
2020/12/05 04:27:30;;;;;;;14.15;6.78;;;1.50;92.40;;;;;;4905378;29;20093;-87
2020/12/05 04:29:58;;;;;;;14.18;5.95;;;1.40;92.50;;;;;;4897284;29;20056;-87
2020/12/05 04:32:26;;;;;;;16.90;7.22;;;1.40;92.40;;;;;;4919480;29;20064;-85
2020/12/05 04:34:54;;;;;;;17.63;7.20;;;1.50;92.50;;;;;;4904550;29;20056;-85
2020/12/05 04:37:25;;;;;;;13.75;7.18;;;1.50;92.50;;;;;;4889253;29;21581;-82
2020/12/05 04:39:53;;;;;;;;;;;1.50;92.60;;;;;;4875633;29;20060;-83
2020/12/05 04:42:21;;;;;;;15.02;6.50;;;1.50;92.60;;;;;;4912466;29;19994;-88
2020/12/05 04:44:49;;;;;;;11.40;5.18;;;1.50;92.90;;;;;;4932986;29;20053;-86
2020/12/05 04:47:18;;;;;;;13.90;7.13;;;1.50;92.90;;;;;;4904824;29;20044;-85
2020/12/05 04:49:48;;;;;;;15.02;7.10;;;1.50;92.80;;;;;;4905864;29;20058;-84
2020/12/05 04:52:22;;;;;;;17.00;6.97;;;1.40;92.60;;;;;;4905383;29;20056;-87
2020/12/05 04:54:56;;;;;;;14.82;7.32;;;1.50;92.70;;;;;;4906638;29;20355;-85
2020/12/05 04:57:30;;;;;;;12.45;5.43;;;1.50;92.80;;;;;;4919690;29;20343;-87
2020/12/05 05:00:01;;;;;;;12.55;7.50;;;1.40;92.70;;;;;;4889820;29;20304;-85
2020/12/05 05:02:30;;;;;;;14.98;6.63;;;1.50;92.90;;;;;;4903765;29;20063;-84
2020/12/05 05:05:00;;;;;;;14.40;5.95;;;1.50;92.80;;;;;;4904944;29;20219;-86
2020/12/05 05:07:33;;;;;;;11.65;5.57;;;1.50;92.90;;;;;;4885031;29;20041;-85
2020/12/05 05:10:10;;;;;;;9.65;4.78;;;1.60;92.80;;;;;;4918687;29;20051;-87
2020/12/05 05:12:42;;;;;;;11.57;5.43;;;1.70;92.80;;;;;;4903623;29;20715;-85
2020/12/05 05:15:30;;;;;;;11.70;5.03;;;1.70;92.70;;;;;;4884036;29;20120;-87
2020/12/05 05:18:02;;;;;;;9.20;5.30;;;1.70;92.60;;;;;;4901571;29;20085;-84
2020/12/05 05:20:35;;;;;;;11.30;5.43;;;1.70;92.40;;;;;;4890233;29;20079;-85
2020/12/05 05:23:14;;;;;;;10.13;4.97;;;1.60;92.70;;;;;;4898670;29;20060;-83
2020/12/05 05:25:57;;;;;;;11.25;4.50;;;1.60;92.80;;;;;;4887316;29;20096;-85
2020/12/05 05:28:29;;;;;;;15.10;5.78;;;1.70;92.70;;;;;;4920471;29;20072;-84
2020/12/05 05:31:06;;;;;;;11.02;5.07;;;1.70;92.50;;;;;;4920987;29;20053;-86
2020/12/05 05:33:46;;;;;;;13.30;5.85;;;1.70;92.60;;;;;;4890494;29;20118;-85
2020/12/05 05:36:22;;;;;;;8.52;4.82;;;1.70;92.60;;;;;;4903782;29;20056;-85
2020/12/05 05:39:00;;;;;;;10.43;5.45;;;1.70;92.60;;;;;;4883544;29;20067;-85
2020/12/05 05:41:31;;;;;;;12.60;6.28;;;1.70;92.70;;;;;;4918670;29;20344;-86
2020/12/05 05:44:05;;;;;;;10.68;5.18;;;1.70;92.70;;;;;;4916742;29;20224;-84
2020/12/05 05:46:34;;;;;;;12.93;5.78;;;1.70;92.60;;;;;;4921368;29;20644;-86
2020/12/05 05:49:05;;;;;;;10.40;5.28;;;1.70;92.50;;;;;;4887801;29;20056;-85
2020/12/05 05:51:47;;;;;;;12.13;5.93;;;1.70;92.60;;;;;;4920870;29;20127;-85
2020/12/05 05:54:18;;;;;;;12.15;5.55;;;1.80;92.50;;;;;;4916860;29;20059;-83
2020/12/05 05:57:07;;;;;;;14.85;6.55;;;1.80;91.90;;;;;;4899418;29;20095;-86
2020/12/05 05:59:39;;;;;;;15.98;5.95;;;1.70;92.20;;;;;;4883037;29;20112;-86
2020/12/05 06:02:11;;;;;;;14.57;6.45;;;1.70;92.80;;;;;;4900664;29;20052;-87
2020/12/05 06:04:40;;;;;;;10.15;5.40;;;1.60;92.90;;;;;;4888621;29;20339;-85
2020/12/05 06:07:10;;;;;;;14.15;6.22;;;1.60;92.90;;;;;;4916887;29;20113;-86
2020/12/05 06:09:47;;;;;;;12.20;5.63;;;1.60;93.10;;;;;;4882941;29;20115;-85
2020/12/05 06:12:21;;;;;;;9.45;4.75;;;1.70;92.90;;;;;;4903821;29;20251;-85
2020/12/05 06:14:51;;;;;;;11.40;5.03;;;1.70;92.70;;;;;;4888060;29;20151;-85
2020/12/05 06:17:20;;;;;;;7.78;4.32;;;1.60;93.20;;;;;;4903985;29;20052;-87
2020/12/05 06:19:50;;;;;;;9.77;4.45;;;1.70;92.50;;;;;;4935465;29;20220;-84
2020/12/05 06:22:37;;;;;;;11.20;4.82;;;1.70;92.80;;;;;;4905420;29;20048;-86
2020/12/05 06:25:12;;;;;;;10.05;4.85;;;1.70;93.00;;;;;;4915599;29;20073;-87
2020/12/05 06:27:50;;;;;;;9.90;4.70;;;1.70;92.90;;;;;;4898077;29;20047;-85
2020/12/05 06:30:19;;;;;;;13.57;6.15;;;1.70;92.80;;;;;;4935109;29;20040;-87
2020/12/05 06:32:49;;;;;;;8.68;3.85;;;1.70;92.80;;;;;;4902469;29;20076;-88
2020/12/05 06:35:34;;;;;;;10.43;5.28;;;1.70;92.80;;;;;;4909598;29;20474;-86
2020/12/05 06:38:04;;;;;;;12.13;4.80;;;1.70;92.70;;;;;;4873489;29;20065;-86
2020/12/05 06:40:41;;;;;;;14.30;5.22;;;1.70;92.70;;;;;;4886650;29;20411;-85
2020/12/05 06:43:14;;;;;;;10.65;4.85;;;1.70;92.60;;;;;;4897352;29;20199;-86
2020/12/05 06:45:44;;;;;;;8.73;4.15;;;1.70;92.90;;;;;;4907680;29;20072;-84
2020/12/05 06:48:33;;;;;;;12.13;5.13;;;1.70;92.90;;;;;;4903512;29;20234;-86
2020/12/05 06:51:02;;;;;;;11.52;4.85;;;1.70;92.80;;;;;;4902602;29;20067;-86
2020/12/05 06:53:34;;;;;;;11.15;5.18;;;1.80;92.80;;;;;;4885603;29;20063;-85
2020/12/05 06:56:18;;;;;;;10.25;4.88;;;1.70;92.50;;;;;;4899690;29;20055;-85
2020/12/05 06:58:58;;;;;;;7.97;5.05;;;1.80;92.60;;;;;;4888834;29;20076;-84
2020/12/05 07:01:31;;;;;;;10.70;4.87;;;1.90;92.60;;;;;;4901732;29;20071;-86
2020/12/05 07:04:21;;;;;;;11.45;4.65;;;1.90;92.40;;;;;;4902018;29;20108;-84
2020/12/05 07:06:54;;;;;;;12.10;5.35;;;2.00;92.40;;;;;;4905291;29;20096;-85
2020/12/05 07:09:24;;;;;;;12.55;6.32;;;2.00;91.90;;;;;;4905288;29;20048;-85
2020/12/05 07:12:20;;;;;;;12.30;6.83;;;1.80;92.30;;;;;;4903299;29;20056;-84
2020/12/05 07:14:50;;;;;;;11.75;5.68;;;2.00;92.40;;;;;;4890347;29;20116;-85
2020/12/05 07:17:22;;;;;;;12.63;5.47;;;1.90;92.20;;;;;;4938718;29;20059;-86
2020/12/05 07:19:54;;;;;;;16.58;5.97;;;1.90;92.40;;;;;;4908709;29;20048;-86
2020/12/05 07:22:26;;;;;;;12.05;6.65;;;2.00;92.40;;;;;;4919821;29;20132;-86
2020/12/05 07:25:21;;;;;;;13.52;5.20;;;2.00;92.20;;;;;;4890105;29;20141;-84
2020/12/05 07:27:53;;;;;;;13.98;5.88;;;2.10;92.10;;;;;;4933202;29;20049;-86
2020/12/05 07:30:24;;;;;;;12.05;5.35;;;2.10;91.90;;;;;;4906744;29;20052;-88
2020/12/05 07:32:54;;;;;;;10.55;5.10;;;2.10;92.00;;;;;;4919769;29;20069;-85
2020/12/05 07:35:24;;;;;;;14.40;5.82;;;2.10;92.10;;;;;;4876053;29;20053;-86
2020/12/05 07:37:58;;;;;;;16.02;7.53;;;2.10;92.10;;;;;;4917933;29;20052;-84
2020/12/05 07:40:30;;;;;;;14.45;6.07;;;2.20;92.00;;;;;;4923068;29;20058;-84
2020/12/05 07:43:06;;;;;;;16.05;7.25;;;2.20;91.70;;;;;;4931075;29;20092;-84
2020/12/05 07:45:42;;;;;;;15.93;6.35;;;2.30;91.80;;;;;;4882468;29;20097;-84
2020/12/05 07:48:16;;;;;;;11.73;6.22;;;2.50;91.10;;;;;;4898814;29;20049;-85
2020/12/05 07:50:47;;;;;;;15.02;6.70;;;2.50;91.00;;;;;;4900589;29;20455;-84
2020/12/05 07:53:32;;;;;;;13.13;6.57;;;2.50;91.20;;;;;;4867517;29;20075;-84
2020/12/05 07:56:13;;;;;;;10.18;6.10;;;2.60;90.50;;;;;;4890764;29;20112;-85
2020/12/05 07:58:46;;;;;;;10.85;5.03;;;2.70;90.20;;;;;;4886106;29;20071;-85
2020/12/05 08:01:36;;;;;;;7.53;3.95;;;2.70;90.10;;;;;;4902974;29;20116;-84
2020/12/05 08:04:35;;;;;;;9.48;5.00;;;2.70;89.80;;;;;;4886702;29;20061;-87
2020/12/05 08:07:25;;;;;;;12.27;5.82;;;2.70;89.50;;;;;;4904554;29;20132;-85
2020/12/05 08:09:57;;;;;;;11.63;5.80;;;2.70;89.50;;;;;;4873253;29;20128;-87
2020/12/05 08:12:58;;;;;;;9.77;5.35;;;2.50;90.30;;;;;;4888768;29;20063;-87
2020/12/05 08:15:30;;;;;;;9.82;5.15;;;2.40;90.80;;;;;;4865177;29;20080;-85
2020/12/05 08:18:02;;;;;;;13.23;6.72;;;2.50;91.10;;;;;;4870305;29;20060;-85
2020/12/05 08:20:32;;;;;;;12.85;5.63;;;2.60;90.40;;;;;;4887767;29;22422;-86
2020/12/05 08:23:01;;;;;;;9.35;5.65;;;2.60;90.20;;;;;;4870620;29;20049;-87
2020/12/05 08:25:34;;;;;;;11.85;5.95;;;2.50;90.30;;;;;;4901282;29;20049;-87
2020/12/05 08:28:08;;;;;;;12.95;6.22;;;2.50;90.80;;;;;;4886195;29;20049;-88
2020/12/05 08:30:38;;;;;;;10.70;5.60;;;2.50;90.90;;;;;;4861295;29;20051;-85
2020/12/05 08:33:14;;;;;;;12.07;6.57;;;2.70;90.60;;;;;;4888921;29;20093;-84
2020/12/05 08:35:44;;;;;;;19.67;6.85;;;2.70;90.60;;;;;;4889131;29;20053;-86
2020/12/05 08:38:22;;;;;;;13.33;6.70;;;2.60;90.70;;;;;;4884046;29;20063;-86
2020/12/05 08:41:12;;;;;;;19.17;7.10;;;2.70;90.80;;;;;;4869141;29;20049;-84
2020/12/05 08:44:11;;;;;;;18.77;5.93;;;2.70;90.60;;;;;;4898100;29;20072;-87
2020/12/05 08:46:44;;;;;;;15.63;6.90;;;2.70;90.30;;;;;;4877421;29;20240;-86
2020/12/05 08:49:25;;;;;;;13.88;5.15;;;2.70;90.60;;;;;;4906577;29;20072;-84
2020/12/05 08:51:54;;;;;;;20.42;8.15;;;2.90;90.50;;;;;;4920185;29;20056;-86
2020/12/05 08:54:23;;;;;;;18.67;9.70;;;3.10;89.00;;;;;;4890304;29;20055;-84
2020/12/05 08:57:06;;;;;;;64.20;34.60;;;3.10;88.70;;;;;;4913298;29;20060;-84
2020/12/05 08:59:37;;;;;;;30.52;15.52;;;3.10;88.80;;;;;;4901601;29;20052;-85
2020/12/05 09:02:10;;;;;;;19.80;11.98;;;3.10;88.80;;;;;;4903059;29;20048;-86
2020/12/05 09:04:45;;;;;;;24.17;12.45;;;3.10;88.50;;;;;;4907265;29;20060;-86
2020/12/05 09:07:18;;;;;;;21.65;10.10;;;3.20;88.30;;;;;;4905634;29;20048;-85
2020/12/05 09:09:49;;;;;;;24.63;10.80;;;3.10;88.60;;;;;;4899115;29;20127;-86
2020/12/05 09:12:23;;;;;;;21.85;9.38;;;3.10;88.60;;;;;;4902537;29;20052;-84
2020/12/05 09:15:06;;;;;;;22.80;12.75;;;3.00;89.20;;;;;;4899190;29;20049;-86
2020/12/05 09:17:35;;;;;;;23.75;9.75;;;3.20;88.70;;;;;;4891062;29;20056;-87
2020/12/05 09:20:23;;;;;;;21.10;8.80;;;3.30;88.00;;;;;;4891277;29;20076;-85
2020/12/05 09:23:09;;;;;;;16.60;7.70;;;3.20;88.30;;;;;;4885974;29;20052;-85
2020/12/05 09:25:41;;;;;;;23.73;8.38;;;3.30;88.30;;;;;;4903823;29;20100;-86
2020/12/05 09:28:16;;;;;;;18.98;10.63;;;3.50;88.80;;;;;;4904173;29;20055;-83
2020/12/05 09:30:44;;;;;;;16.48;8.90;;;3.60;87.50;;;;;;4901458;29;20072;-84
2020/12/05 09:33:18;;;;;;;19.02;7.55;;;3.60;87.70;;;;;;4900595;29;20048;-84
2020/12/05 09:35:47;;;;;;;9.98;5.90;;;3.80;87.10;;;;;;4885583;29;20062;-85
2020/12/05 09:38:15;;;;;;;13.13;7.68;;;3.90;86.20;;;;;;4904350;29;20053;-82
2020/12/05 09:40:44;;;;;;;13.27;5.55;;;3.80;86.60;;;;;;4906675;29;20064;-86
2020/12/05 09:43:14;;;;;;;24.20;6.70;;;3.70;86.40;;;;;;4904116;29;20073;-84
2020/12/05 09:45:43;;;;;;;15.15;5.63;;;3.70;86.50;;;;;;4903825;29;20056;-85
2020/12/05 09:48:12;;;;;;;14.38;6.60;;;3.60;87.00;;;;;;4915142;29;20041;-86
2020/12/05 09:50:39;;;;;;;14.48;5.80;;;3.60;87.40;;;;;;4906018;29;20053;-86
2020/12/05 09:53:08;;;;;;;10.70;5.45;;;3.60;87.40;;;;;;4920908;29;20080;-87
2020/12/05 09:55:57;;;;;;;13.75;6.63;;;3.50;88.00;;;;;;4898071;29;20056;-87
2020/12/05 09:58:26;;;;;;;10.40;5.05;;;3.50;89.00;;;;;;4883380;29;20076;-85
2020/12/05 10:00:57;;;;;;;11.27;6.47;;;3.80;87.40;;;;;;4899633;29;20407;-86
2020/12/05 10:03:25;;;;;;;14.93;6.10;;;3.60;88.00;;;;;;4895722;29;20116;-86
2020/12/05 10:05:53;;;;;;;12.93;7.20;;;3.70;87.80;;;;;;4886362;29;20053;-84
2020/12/05 10:08:24;;;;;;;21.10;7.93;;;3.90;87.00;;;;;;4888967;29;20068;-85
2020/12/05 10:10:53;;;;;;;18.42;6.38;;;4.10;86.50;;;;;;4907386;29;20045;-87
2020/12/05 10:16:10;;;;;;;14.25;5.95;;;4.20;86.80;;;;;;4890025;29;20357;-85
2020/12/05 10:18:38;;;;;;;12.52;6.10;;;4.20;86.00;;;;;;4921601;29;20103;-86
2020/12/05 10:21:10;;;;;;;14.10;6.60;;;4.40;85.20;;;;;;4906184;29;20305;-86
2020/12/05 10:23:39;;;;;;;11.95;6.10;;;4.40;85.10;;;;;;4936564;29;20072;-84
2020/12/05 10:26:10;;;;;;;10.88;5.80;;;4.40;84.90;;;;;;4937877;29;20119;-84
2020/12/05 10:28:38;;;;;;;10.20;5.43;;;4.30;85.00;;;;;;4903490;29;20061;-84
2020/12/05 10:31:07;;;;;;;12.90;7.05;;;4.20;85.90;;;;;;4914628;29;20062;-83
2020/12/05 10:33:43;;;;;;;12.55;6.97;;;4.30;85.90;;;;;;4919611;29;20045;-85
2020/12/05 10:36:11;;;;;;;14.20;7.78;;;4.30;85.90;;;;;;4921685;29;20052;-86
2020/12/05 10:38:46;;;;;;;15.32;7.53;;;4.30;85.80;;;;;;4907123;29;20059;-86
2020/12/05 10:41:14;;;;;;;19.58;7.60;;;4.10;86.50;;;;;;4893198;29;20060;-86
2020/12/05 10:44:18;;;;;;;19.27;12.02;;;4.30;85.90;;;;;;4913524;29;20080;-84
2020/12/05 10:46:58;;;;;;;;;;;4.30;85.70;;;;;;4898460;29;20055;-86
2020/12/05 10:49:28;;;;;;;15.05;7.90;;;4.20;85.90;;;;;;4904946;29;19927;-86
2020/12/05 10:51:56;;;;;;;12.88;7.68;;;4.30;85.80;;;;;;4908760;29;20370;-84
2020/12/05 10:54:34;;;;;;;15.32;6.97;;;4.30;85.80;;;;;;4939577;29;20163;-85
2020/12/05 10:57:02;;;;;;;12.75;7.40;;;4.30;85.90;;;;;;4940138;29;20063;-84
2020/12/05 10:59:30;;;;;;;11.32;5.28;;;4.20;86.50;;;;;;4925366;29;20363;-84
2020/12/05 11:01:58;;;;;;;13.48;6.05;;;4.40;86.50;;;;;;4888080;29;20052;-85
2020/12/05 11:04:26;;;;;;;14.13;7.60;;;4.50;86.00;;;;;;4901162;29;20055;-84
2020/12/05 11:07:00;;;;;;;22.27;11.15;;;4.50;85.70;;;;;;4908120;29;20099;-85
2020/12/05 11:09:37;;;;;;;17.15;8.88;;;4.60;85.30;;;;;;4892318;29;20057;-84
2020/12/05 11:12:13;;;;;;;18.58;9.65;;;4.60;85.00;;;;;;4899358;29;20264;-84
2020/12/05 11:14:40;;;;;;;17.08;9.50;;;4.60;85.00;;;;;;4894236;29;20052;-84
2020/12/05 11:17:09;;;;;;;18.63;10.57;;;4.60;85.10;;;;;;4882428;29;20085;-86
2020/12/05 11:19:36;;;;;;;19.42;9.73;;;4.50;86.10;;;;;;4901225;29;20434;-87
2020/12/05 11:22:03;;;;;;;20.02;11.57;;;4.40;86.50;;;;;;4923574;29;20118;-86
2020/12/05 11:24:31;;;;;;;18.25;10.77;;;4.60;85.70;;;;;;4903756;29;20079;-86
2020/12/05 11:27:02;;;;;;;21.20;9.85;;;4.50;86.00;;;;;;4878635;29;20059;-85
2020/12/05 11:29:30;;;;;;;17.33;9.40;;;4.40;86.20;;;;;;4880136;29;20083;-84
2020/12/05 11:32:58;;;;;;;26.95;13.50;;;4.60;86.10;;;;;;4934316;29;20060;-86
2020/12/05 11:35:27;;;;;;;22.75;9.57;;;4.60;85.80;;;;;;4883520;29;20053;-83
2020/12/05 11:37:54;;;;;;;17.98;9.82;;;4.30;87.50;;;;;;4901254;29;20096;-84
2020/12/05 11:40:21;;;;;;;21.85;10.32;;;4.40;87.40;;;;;;4900060;29;20057;-85
2020/12/05 11:42:50;;;;;;;19.77;9.52;;;4.50;86.60;;;;;;4914229;29;20056;-87
2020/12/05 11:45:19;;;;;;;23.75;11.00;;;4.40;87.40;;;;;;4910968;29;20109;-85
2020/12/05 11:47:47;;;;;;;17.90;9.30;;;4.50;86.50;;;;;;4900493;29;20052;-83
2020/12/05 11:50:14;;;;;;;22.48;9.13;;;4.30;87.80;;;;;;4909830;29;20064;-84
2020/12/05 11:52:55;;;;;;;17.60;8.70;;;4.30;87.60;;;;;;4900845;29;20239;-87
2020/12/05 11:55:23;;;;;;;18.60;8.95;;;4.40;86.80;;;;;;4903098;29;20052;-83
2020/12/05 11:57:51;;;;;;;15.05;8.57;;;4.30;87.50;;;;;;4897931;29;20048;-84
2020/12/05 12:00:29;;;;;;;14.27;7.43;;;4.60;86.80;;;;;;4934418;29;20096;-84
2020/12/05 12:02:59;;;;;;;18.23;8.60;;;4.60;86.70;;;;;;4903297;29;20052;-83
2020/12/05 12:05:26;;;;;;;13.52;6.93;;;4.40;87.10;;;;;;4903507;29;20054;-82
2020/12/05 12:07:53;;;;;;;18.98;9.38;;;4.50;87.10;;;;;;4904235;29;20056;-83
2020/12/05 12:10:20;;;;;;;11.55;6.45;;;4.40;87.30;;;;;;4904721;29;20334;-83
2020/12/05 12:12:48;;;;;;;11.45;6.45;;;4.50;87.30;;;;;;4904747;29;20056;-85
2020/12/05 12:15:18;;;;;;;13.77;5.95;;;4.60;87.00;;;;;;4889003;29;20156;-83
2020/12/05 12:17:44;;;;;;;11.23;5.63;;;4.70;86.70;;;;;;4903534;29;20060;-83
2020/12/05 12:20:14;;;;;;;11.82;5.55;;;4.70;86.60;;;;;;4904303;29;20057;-83
2020/12/05 12:22:48;;;;;;;11.80;5.72;;;4.70;86.90;;;;;;4899259;29;20365;-85
2020/12/05 12:25:25;;;;;;;10.90;6.45;;;4.70;86.30;;;;;;4892020;29;20060;-85
2020/12/05 12:27:58;;;;;;;11.75;5.50;;;4.90;86.40;;;;;;4901972;29;20182;-87
2020/12/05 12:30:31;;;;;;;11.18;6.00;;;5.00;86.00;;;;;;4912017;29;20051;-86
2020/12/05 12:32:59;;;;;;;11.23;5.18;;;4.80;86.00;;;;;;4907331;29;20184;-85
2020/12/05 12:35:27;;;;;;;13.60;5.80;;;4.80;87.00;;;;;;4900915;29;20087;-86
2020/12/05 12:37:56;;;;;;;11.18;4.88;;;4.90;86.00;;;;;;4888521;29;20049;-85
2020/12/05 12:40:23;;;;;;;15.52;6.40;;;4.80;86.20;;;;;;4882899;29;20052;-87
2020/12/05 12:42:52;;;;;;;11.85;5.82;;;4.70;86.50;;;;;;4900906;29;20396;-83
2020/12/05 12:45:28;;;;;;;14.27;5.80;;;4.80;86.10;;;;;;4899320;29;20053;-83
2020/12/05 12:50:38;;;;;;;11.05;4.93;;;5.00;85.70;;;;;;4897917;29;20076;-85
2020/12/05 12:53:12;;;;;;;10.23;4.60;;;5.00;85.80;;;;;;4906871;29;20160;-85
2020/12/05 12:56:04;;;;;;;12.15;5.88;;;5.00;86.30;;;;;;4908490;29;20066;-84
2020/12/05 12:58:42;;;;;;;12.63;5.03;;;5.00;85.90;;;;;;4899569;29;20624;-85
2020/12/05 13:01:10;;;;;;;9.68;5.05;;;5.00;85.90;;;;;;4897560;29;20064;-85
2020/12/05 13:03:55;;;;;;;11.52;4.65;;;5.00;86.40;;;;;;4887212;29;20060;-84
2020/12/05 13:06:23;;;;;;;13.35;5.72;;;5.20;85.40;;;;;;4905868;29;20045;-82
2020/12/05 13:08:53;;;;;;;10.18;4.57;;;5.10;85.20;;;;;;4906434;29;20048;-83
2020/12/05 13:11:22;;;;;;;11.57;4.93;;;5.10;86.10;;;;;;4904605;29;20081;-86
2020/12/05 13:13:55;;;;;;;9.70;5.60;;;5.20;85.90;;;;;;4891958;29;20056;-87
2020/12/05 13:16:24;;;;;;;8.63;4.53;;;5.20;85.50;;;;;;4919463;29;20289;-84
2020/12/05 13:19:02;;;;;;;11.30;5.60;;;5.20;85.80;;;;;;4919337;29;20045;-86
2020/12/05 13:21:42;;;;;;;12.38;5.22;;;5.20;85.30;;;;;;4919930;29;20249;-85
2020/12/05 13:24:25;;;;;;;9.55;4.32;;;5.30;84.90;;;;;;4907540;29;20064;-85